Time;durP1;ratioP1;P1;durP2;ratioP2;P2;SDS_P1;SDS_P2;PMS_P1;PMS_P2;Temp;Humidity;BMP_temperature;BMP_pressure;BME280_temperature;BME280_humidity;BME280_pressure;Samples;Min_cycle;Max_cycle;Signal;HPM_P1;HPM_P2
2023/05/17 00:01:02;;;;;;;4.32;1.70;;;;;;;3.69;100.00;98981.03;4181650;28;20409;-71
2023/05/17 00:03:02;;;;;;;5.30;2.00;;;;;;;3.64;100.00;98979.25;4180186;28;20065;-71
2023/05/17 00:05:03;;;;;;;2.90;1.60;;;;;;;3.62;100.00;98981.50;4185146;28;20048;-71
2023/05/17 00:07:04;;;;;;;4.63;1.83;;;;;;;3.58;100.00;98981.34;4177637;28;20759;-71
2023/05/17 00:09:04;;;;;;;5.65;1.88;;;;;;;3.53;100.00;98973.28;4186154;28;20397;-71
2023/05/17 00:11:04;;;;;;;3.90;1.42;;;;;;;3.55;100.00;98978.44;4186809;28;20704;-71
2023/05/17 00:13:04;;;;;;;3.65;1.60;;;;;;;3.55;100.00;98984.69;4182162;28;20052;-71
2023/05/17 00:15:05;;;;;;;3.90;2.03;;;;;;;3.54;100.00;98982.28;4182120;28;20049;-71
2023/05/17 00:17:05;;;;;;;2.67;1.75;;;;;;;3.50;100.00;98987.59;4180439;28;20056;-71
2023/05/17 00:19:08;;;;;;;4.13;1.77;;;;;;;3.46;100.00;98989.34;4182566;28;20113;-71
2023/05/17 00:21:08;;;;;;;2.60;1.90;;;;;;;3.42;100.00;98982.91;4185471;28;20163;-71
2023/05/17 00:23:08;;;;;;;3.28;1.73;;;;;;;3.41;100.00;98988.72;4178725;28;20079;-71
2023/05/17 00:25:09;;;;;;;3.05;2.10;;;;;;;3.38;100.00;98990.94;4185466;28;20147;-71
2023/05/17 00:27:09;;;;;;;2.25;1.55;;;;;;;3.40;100.00;98989.84;4184268;28;20119;-71
2023/05/17 00:29:09;;;;;;;4.18;1.88;;;;;;;3.37;100.00;98992.06;4180045;28;20119;-71
2023/05/17 00:31:10;;;;;;;2.78;1.90;;;;;;;3.37;100.00;98994.81;4182899;28;20052;-71
2023/05/17 00:33:10;;;;;;;4.15;1.85;;;;;;;3.40;100.00;98992.56;4183011;28;20257;-71
2023/05/17 00:35:10;;;;;;;3.63;2.00;;;;;;;3.43;100.00;98995.47;4182796;28;20037;-71
2023/05/17 00:37:11;;;;;;;6.85;2.63;;;;;;;3.43;100.00;98991.94;4180397;28;20041;-71
2023/05/17 00:39:11;;;;;;;4.88;2.40;;;;;;;3.49;100.00;98996.94;4180400;28;20086;-71
2023/05/17 00:41:11;;;;;;;5.72;2.10;;;;;;;3.50;100.00;98995.00;4185327;28;20580;-71
2023/05/17 00:43:12;;;;;;;4.93;1.70;;;;;;;3.51;100.00;98994.69;4182240;28;20037;-71
2023/05/17 00:45:12;;;;;;;4.82;2.53;;;;;;;3.53;100.00;98999.84;4179660;28;20037;-71
2023/05/17 00:47:12;;;;;;;4.20;1.63;;;;;;;3.51;100.00;98991.94;4183504;28;21170;-71
2023/05/17 00:49:13;;;;;;;3.08;2.40;;;;;;;3.48;100.00;99000.00;4176414;28;20535;-71
2023/05/17 00:51:15;;;;;;;4.32;2.03;;;;;;;3.43;100.00;98992.72;4184984;28;20127;-70
2023/05/17 00:53:16;;;;;;;5.03;1.48;;;;;;;3.38;100.00;98990.13;4181329;28;20127;-70
2023/05/17 00:55:18;;;;;;;4.38;1.73;;;;;;;3.32;100.00;98992.22;4181276;28;20060;-70
2023/05/17 00:57:19;;;;;;;2.95;1.80;;;;;;;3.35;100.00;98994.31;4185859;28;20086;-71
2023/05/17 00:59:21;;;;;;;3.65;1.90;;;;;;;3.36;100.00;98998.66;4183891;28;20044;-71
2023/05/17 01:01:21;;;;;;;3.90;1.73;;;;;;;3.34;100.00;98995.44;4179430;28;20427;-71
2023/05/17 01:03:22;;;;;;;3.70;2.00;;;;;;;3.33;100.00;98999.31;4179751;28;20041;-71
2023/05/17 01:05:22;;;;;;;6.78;2.25;;;;;;;3.34;100.00;99000.91;4184418;28;20049;-71
2023/05/17 01:07:22;;;;;;;4.47;1.88;;;;;;;3.33;100.00;98998.50;4184094;28;20040;-71
2023/05/17 01:09:23;;;;;;;4.82;2.10;;;;;;;3.31;100.00;98993.34;4179793;28;20435;-71
2023/05/17 01:12:01;;;;;;;4.63;1.85;;;;;;;3.32;100.00;98994.97;4183630;28;20251;-71
2023/05/17 01:14:17;;;;;;;8.48;2.70;;;;;;;3.30;100.00;98988.19;4179072;28;20064;-71
2023/05/17 01:16:27;;;;;;;4.95;2.08;;;;;;;3.27;100.00;98991.56;4181506;28;20024;-71
2023/05/17 01:18:38;;;;;;;8.90;2.88;;;;;;;3.27;100.00;98997.03;4184716;28;20586;-71
2023/05/17 01:20:47;;;;;;;4.72;2.40;;;;;;;3.29;100.00;99001.06;4179546;28;20457;-71
2023/05/17 01:22:52;;;;;;;7.32;2.78;;;;;;;3.36;100.00;99004.13;4182882;28;20090;-71
2023/05/17 01:25:22;;;;;;;5.32;2.40;;;;;;;3.37;100.00;99000.28;4182495;28;20467;-71
2023/05/17 01:27:25;;;;;;;5.93;2.17;;;;;;;3.45;100.00;99001.44;4175297;28;20048;-71
2023/05/17 01:29:28;;;;;;;5.95;2.10;;;;;;;3.53;100.00;99002.56;4182967;28;20045;-71
2023/05/17 01:31:30;;;;;;;;;;;;;;;3.56;100.00;99005.50;4182627;28;20055;-71
2023/05/17 01:33:31;;;;;;;6.15;2.60;;;;;;;3.61;100.00;99012.72;4183544;28;19934;-71
2023/05/17 01:35:31;;;;;;;6.22;3.28;;;;;;;3.59;100.00;99004.84;4182155;28;20040;-71
2023/05/17 01:37:31;;;;;;;6.78;2.72;;;;;;;3.59;100.00;99021.25;4179890;28;20098;-71
2023/05/17 01:39:32;;;;;;;7.68;2.97;;;;;;;3.58;100.00;99018.84;4179362;28;20048;-71
2023/05/17 01:41:38;;;;;;;12.95;3.10;;;;;;;3.60;100.00;99020.13;4182077;28;20037;-71
2023/05/17 01:43:43;;;;;;;5.22;2.53;;;;;;;3.55;100.00;99020.28;4179942;28;20036;-71
2023/05/17 01:46:05;;;;;;;3.70;2.20;;;;;;;3.56;100.00;99016.44;4186182;28;20040;-71
2023/05/17 01:48:20;;;;;;;6.93;2.63;;;;;;;3.50;100.00;99025.09;4183116;28;20523;-71
2023/05/17 01:50:27;;;;;;;6.97;3.08;;;;;;;3.46;100.00;99026.84;4182090;28;20523;-71
2023/05/17 01:52:34;;;;;;;4.10;2.55;;;;;;;3.45;100.00;99033.44;4181683;28;20033;-71
2023/05/17 01:54:49;;;;;;;5.43;2.90;;;;;;;3.47;100.00;99031.19;4186592;28;20039;-71
2023/05/17 01:56:56;;;;;;;8.30;3.00;;;;;;;3.55;100.00;99030.41;4180633;28;20086;-71
2023/05/17 01:58:58;;;;;;;4.85;2.55;;;;;;;3.54;100.00;99029.59;4188561;28;20047;-71
2023/05/17 02:01:00;;;;;;;10.35;3.33;;;;;;;3.57;100.00;99039.13;4182933;28;20118;-71
2023/05/17 02:03:00;;;;;;;7.53;3.10;;;;;;;3.62;100.00;99037.03;4188781;28;20036;-71
2023/05/17 02:05:01;;;;;;;7.93;2.80;;;;;;;3.62;100.00;99036.22;4186759;28;20266;-71
2023/05/17 02:07:02;;;;;;;5.70;2.90;;;;;;;3.62;100.00;99041.69;4184258;28;20044;-71
2023/05/17 02:09:03;;;;;;;7.93;3.22;;;;;;;3.63;100.00;99033.16;4186241;28;20051;-71
2023/05/17 02:11:03;;;;;;;7.75;3.20;;;;;;;3.62;100.00;99033.50;4186394;28;20041;-71
2023/05/17 02:13:04;;;;;;;6.10;2.90;;;;;;;3.56;100.00;99040.25;4179639;28;20452;-71
2023/05/17 02:15:06;;;;;;;5.28;2.67;;;;;;;3.48;100.00;99039.09;4185349;28;20470;-71
2023/05/17 02:17:07;;;;;;;7.72;3.13;;;;;;;3.33;100.00;99034.88;4187493;28;20044;-71
2023/05/17 02:19:08;;;;;;;8.02;2.85;;;;;;;3.31;100.00;99037.13;4181338;28;20167;-71
2023/05/17 02:21:08;;;;;;;6.03;2.70;;;;;;;3.26;100.00;99029.03;4185810;28;20517;-71
2023/05/17 02:23:08;;;;;;;5.53;2.80;;;;;;;3.24;100.00;99036.78;4184250;28;20079;-71
2023/05/17 02:25:09;;;;;;;7.38;3.03;;;;;;;3.25;100.00;99035.66;4185889;28;20580;-71
2023/05/17 02:27:09;;;;;;;4.80;2.38;;;;;;;3.24;100.00;99036.78;4177351;28;20382;-71
2023/05/17 02:29:10;;;;;;;5.85;3.38;;;;;;;3.23;100.00;99048.03;4185931;28;20044;-71
2023/05/17 02:31:10;;;;;;;5.70;2.90;;;;;;;3.22;100.00;99049.13;4184803;28;20433;-71
2023/05/17 02:33:10;;;;;;;5.60;2.65;;;;;;;3.21;100.00;99048.31;4184131;28;20044;-71
2023/05/17 02:35:11;;;;;;;9.40;2.60;;;;;;;3.19;100.00;99044.31;4182627;28;20052;-71
2023/05/17 02:37:11;;;;;;;6.18;3.08;;;;;;;3.13;100.00;99048.28;4183754;28;20053;-71
2023/05/17 02:39:11;;;;;;;7.82;3.35;;;;;;;3.09;100.00;99042.66;4185526;28;20487;-71
2023/05/17 02:41:12;;;;;;;8.40;2.97;;;;;;;3.06;100.00;99043.25;4185227;28;20294;-71
2023/05/17 02:43:12;;;;;;;5.70;2.92;;;;;;;3.05;100.00;99047.94;4185333;28;20092;-71
2023/05/17 02:45:12;;;;;;;5.53;3.00;;;;;;;3.04;100.00;99040.03;4183898;28;20043;-71
2023/05/17 02:47:13;;;;;;;6.05;3.05;;;;;;;3.02;100.00;99043.09;4184271;28;20436;-71
2023/05/17 02:49:13;;;;;;;7.30;3.20;;;;;;;3.04;100.00;99037.31;4185678;28;20338;-71
2023/05/17 02:51:13;;;;;;;7.45;2.60;;;;;;;3.07;100.00;99039.44;4180486;28;20079;-71
2023/05/17 02:53:14;;;;;;;5.75;3.20;;;;;;;3.10;100.00;99044.25;4184138;28;20082;-71
2023/05/17 02:55:14;;;;;;;6.32;3.13;;;;;;;3.10;100.00;99039.59;4183729;28;20041;-71
2023/05/17 02:57:14;;;;;;;5.35;3.15;;;;;;;3.08;100.00;99033.66;4184801;28;20041;-71
2023/05/17 02:59:14;;;;;;;6.05;2.80;;;;;;;3.13;100.00;99035.41;4183789;28;20056;-71
2023/05/17 03:01:15;;;;;;;8.35;2.80;;;;;;;3.09;100.00;99035.25;4179208;28;20299;-71
2023/05/17 03:03:15;;;;;;;6.22;3.45;;;;;;;3.15;100.00;99035.94;4182089;28;20763;-71
2023/05/17 03:05:16;;;;;;;4.60;2.58;;;;;;;3.15;100.00;99035.13;4186005;28;20557;-71
2023/05/17 03:07:16;;;;;;;5.13;2.60;;;;;;;3.17;100.00;99041.88;4185758;28;20213;-71
2023/05/17 03:09:17;;;;;;;7.22;2.85;;;;;;;3.26;100.00;99039.19;4183717;28;20048;-71
2023/05/17 03:11:17;;;;;;;4.00;2.65;;;;;;;3.33;100.00;99036.81;4185771;28;20052;-71
2023/05/17 03:13:17;;;;;;;4.93;2.60;;;;;;;3.47;100.00;99047.59;4181091;28;20166;-71
2023/05/17 03:15:18;;;;;;;6.13;2.95;;;;;;;3.56;100.00;99049.28;4185842;28;20091;-71
2023/05/17 03:17:18;;;;;;;5.57;2.63;;;;;;;3.63;100.00;99044.09;4181050;28;20049;-71
2023/05/17 03:19:18;;;;;;;4.00;2.50;;;;;;;3.69;100.00;99044.78;4182697;28;20132;-71
2023/05/17 03:21:19;;;;;;;6.07;2.95;;;;;;;3.70;100.00;99045.59;4181324;28;20036;-71
2023/05/17 03:23:20;;;;;;;9.00;3.25;;;;;;;3.71;100.00;99044.44;4186248;28;20045;-71
2023/05/17 03:25:20;;;;;;;5.68;2.92;;;;;;;3.70;100.00;99042.84;4185838;28;20044;-71
2023/05/17 03:27:20;;;;;;;5.55;2.75;;;;;;;3.78;100.00;99048.34;4182169;28;20045;-71
2023/05/17 03:29:21;;;;;;;7.65;2.95;;;;;;;3.84;100.00;99043.53;4182787;28;20033;-71
2023/05/17 03:31:21;;;;;;;4.25;2.70;;;;;;;3.82;100.00;99049.31;4182186;28;20465;-71
2023/05/17 03:33:21;;;;;;;8.02;2.85;;;;;;;3.81;100.00;99052.38;4185325;28;20590;-71
2023/05/17 03:35:22;;;;;;;3.97;2.22;;;;;;;3.80;100.00;99051.56;4181816;28;20044;-71
2023/05/17 03:37:22;;;;;;;7.10;2.92;;;;;;;3.80;100.00;99057.03;4183527;28;20139;-71
2023/05/17 03:39:23;;;;;;;7.40;4.15;;;;;;;3.75;100.00;99054.47;4186675;28;20072;-71
2023/05/17 03:41:23;;;;;;;8.38;2.80;;;;;;;3.79;100.00;99062.81;4183364;28;20037;-71
2023/05/17 03:43:23;;;;;;;5.13;2.88;;;;;;;3.82;100.00;99059.47;4183131;28;20051;-71
2023/05/17 03:45:25;;;;;;;11.43;2.88;;;;;;;3.81;100.00;99063.34;4183403;28;20132;-71
2023/05/17 03:47:25;;;;;;;8.55;2.50;;;;;;;3.78;100.00;99064.75;4181616;28;20226;-71
2023/05/17 03:49:26;;;;;;;6.05;2.45;;;;;;;3.72;100.00;99060.53;4179599;28;20148;-70
2023/05/17 03:51:26;;;;;;;9.13;2.72;;;;;;;3.72;100.00;99066.03;4181271;28;20068;-71
2023/05/17 03:53:27;;;;;;;5.22;2.50;;;;;;;3.63;100.00;99059.72;4181293;28;20152;-71
2023/05/17 03:55:27;;;;;;;6.88;2.72;;;;;;;3.61;100.00;99068.25;4184795;28;20475;-71
2023/05/17 03:57:27;;;;;;;7.15;2.58;;;;;;;3.65;100.00;99065.72;4182324;28;20044;-71
2023/05/17 03:59:28;;;;;;;5.45;2.70;;;;;;;3.67;100.00;99064.25;4181491;28;20423;-71
2023/05/17 04:01:28;;;;;;;8.15;3.00;;;;;;;3.78;100.00;99069.44;4184575;28;20075;-71
2023/05/17 04:03:28;;;;;;;5.10;2.72;;;;;;;3.82;100.00;99070.41;4185514;28;20432;-71
2023/05/17 04:05:29;;;;;;;7.65;2.90;;;;;;;3.85;100.00;99073.31;4185110;28;20135;-71
2023/05/17 04:07:29;;;;;;;6.40;3.47;;;;;;;3.89;100.00;99076.22;4178243;28;20373;-71
2023/05/17 04:09:30;;;;;;;3.15;2.40;;;;;;;3.97;100.00;99074.59;4181318;28;20339;-71
2023/05/17 04:11:31;;;;;;;5.68;3.03;;;;;;;4.02;100.00;99078.00;4180964;28;20481;-71
2023/05/17 04:13:32;;;;;;;4.40;2.75;;;;;;;4.07;100.00;99074.31;4179232;28;20156;-71
2023/05/17 04:15:32;;;;;;;7.03;2.92;;;;;;;4.13;100.00;99071.09;4181876;28;20515;-71
2023/05/17 04:17:32;;;;;;;4.30;2.50;;;;;;;4.18;100.00;99068.19;4180640;28;20060;-71
2023/05/17 04:19:33;;;;;;;6.35;2.92;;;;;;;4.20;100.00;99074.16;4177918;28;20073;-71
2023/05/17 04:21:33;;;;;;;5.85;3.03;;;;;;;4.22;100.00;99080.13;4183233;28;20111;-71
2023/05/17 04:23:34;;;;;;;9.82;2.85;;;;;;;4.30;100.00;99080.44;4178500;28;20109;-71
2023/05/17 04:25:34;;;;;;;7.85;3.05;;;;;;;4.33;100.00;99077.06;4178897;28;20060;-71
2023/05/17 04:27:34;;;;;;;6.47;2.75;;;;;;;4.42;100.00;99078.69;4180211;28;20618;-71
2023/05/17 04:29:35;;;;;;;6.72;4.15;;;;;;;4.49;100.00;99084.50;4178193;28;20029;-71
2023/05/17 04:31:35;;;;;;;12.18;5.05;;;;;;;4.56;100.00;99088.69;4180418;28;20059;-71
2023/05/17 04:33:36;;;;;;;8.63;5.00;;;;;;;4.59;100.00;99086.09;4180618;28;20052;-71
2023/05/17 04:35:37;;;;;;;10.48;5.07;;;;;;;4.69;100.00;99087.69;4180000;28;20060;-71
2023/05/17 04:37:39;;;;;;;6.80;4.40;;;;;;;4.70;100.00;99095.56;4181052;28;20135;-71
2023/05/17 04:39:39;;;;;;;6.35;3.75;;;;;;;4.75;100.00;99091.88;4178532;28;20041;-71
2023/05/17 04:41:40;;;;;;;6.45;4.35;;;;;;;4.81;100.00;99087.84;4180387;28;20806;-71
2023/05/17 04:43:40;;;;;;;7.72;4.00;;;;;;;4.87;100.00;99091.19;4180301;28;20566;-71
2023/05/17 04:45:41;;;;;;;7.28;3.30;;;;;;;4.98;100.00;99087.81;4180838;28;20044;-71
2023/05/17 04:47:42;;;;;;;8.38;3.80;;;;;;;5.06;100.00;99089.72;4178696;28;20182;-71
2023/05/17 04:49:42;;;;;;;6.65;3.85;;;;;;;5.06;100.00;99089.72;4179802;28;20037;-71
2023/05/17 04:51:43;;;;;;;12.30;6.15;;;;;;;5.12;100.00;99093.09;4181452;28;20124;-71
2023/05/17 04:53:43;;;;;;;13.00;7.53;;;;;;;5.15;100.00;99089.69;4177186;28;20067;-71
2023/05/17 04:55:44;;;;;;;18.88;11.02;;;;;;;5.21;100.00;99088.41;4123786;27;20094;-71
2023/05/17 04:57:45;;;;;;;13.38;7.55;;;;;;;5.31;100.00;99098.22;4178030;28;20472;-71
2023/05/17 04:59:45;;;;;;;9.95;4.80;;;;;;;5.32;100.00;99099.81;4179747;28;20052;-71
2023/05/17 05:01:45;;;;;;;8.70;4.95;;;;;;;5.36;100.00;99103.50;4178038;28;20309;-71
2023/05/17 05:03:46;;;;;;;5.00;3.50;;;;;;;5.45;100.00;99112.50;4178417;28;20045;-71
2023/05/17 05:05:46;;;;;;;6.65;3.97;;;;;;;5.51;100.00;99113.94;4178477;28;20048;-71
2023/05/17 05:07:46;;;;;;;5.18;3.03;;;;;;;5.51;100.00;99122.19;4180709;28;20041;-71
2023/05/17 05:09:47;;;;;;;13.60;4.22;;;;;;;5.56;100.00;99115.72;4180382;28;20032;-71
2023/05/17 05:11:47;;;;;;;7.88;4.45;;;;;;;5.62;100.00;99120.66;4183502;28;20040;-71
2023/05/17 05:13:47;;;;;;;6.57;4.57;;;;;;;5.68;100.00;99132.28;4181143;28;20055;-71
2023/05/17 05:15:47;;;;;;;9.55;4.53;;;;;;;5.73;100.00;99125.81;4179099;28;20036;-71
2023/05/17 05:17:48;;;;;;;10.60;4.65;;;;;;;5.79;100.00;99132.72;4180320;28;20045;-71
2023/05/17 05:19:49;;;;;;;12.63;5.90;;;;;;;5.84;100.00;99129.78;4182232;28;20086;-71
2023/05/17 05:21:50;;;;;;;8.45;4.10;;;;;;;5.87;100.00;99127.16;4181080;28;20079;-71
2023/05/17 05:23:50;;;;;;;9.48;4.43;;;;;;;5.90;100.00;99140.28;4179751;28;20091;-71
2023/05/17 05:25:51;;;;;;;10.43;4.25;;;;;;;5.94;100.00;99136.88;4184558;28;20058;-71
2023/05/17 05:27:51;;;;;;;9.85;3.58;;;;;;;6.00;100.00;99141.84;4181372;28;20806;-71
2023/05/17 05:29:52;;;;;;;8.57;4.13;;;;;;;6.05;100.00;99141.69;4180805;28;20037;-71
2023/05/17 05:31:52;;;;;;;8.18;3.67;;;;;;;6.10;100.00;99146.97;4181649;28;20051;-71
2023/05/17 05:33:53;;;;;;;9.77;4.60;;;;;;;6.14;100.00;99153.41;4183960;28;20614;-71
2023/05/17 05:35:53;;;;;;;11.25;6.35;;;;;;;6.19;100.00;99146.91;4181977;28;20036;-71
2023/05/17 05:37:53;;;;;;;6.50;3.58;;;;;;;6.25;100.00;99155.78;4181141;28;20045;-71
2023/05/17 05:39:54;;;;;;;8.93;3.50;;;;;;;6.30;100.00;99159.13;4180526;28;20057;-71
2023/05/17 05:41:54;;;;;;;10.40;4.53;;;;;;;6.34;100.00;99165.56;4178152;28;20124;-71
2023/05/17 05:43:54;;;;;;;9.82;4.25;;;;;;;6.40;100.00;99155.19;4179914;28;20462;-71
2023/05/17 05:45:55;;;;;;;7.38;4.55;;;;;;;6.44;100.00;99167.13;4181530;28;20385;-71
2023/05/17 05:47:55;;;;;;;6.45;3.97;;;;;;;6.50;100.00;99168.53;4180339;28;20072;-71
2023/05/17 05:49:55;;;;;;;9.48;3.60;;;;;;;6.56;100.00;99171.91;4185711;28;20072;-71
2023/05/17 05:51:56;;;;;;;11.30;3.65;;;;;;;6.63;100.00;99169.44;4179569;28;20465;-71
2023/05/17 05:53:57;;;;;;;11.32;4.00;;;;;;;6.65;100.00;99169.88;4178792;28;20554;-71
2023/05/17 05:55:57;;;;;;;8.18;3.63;;;;;;;6.69;100.00;99168.88;4180340;28;20091;-72
2023/05/17 05:57:57;;;;;;;14.05;4.45;;;;;;;6.71;100.00;99168.56;4183428;28;20110;-72
2023/05/17 05:59:58;;;;;;;9.48;4.20;;;;;;;6.77;100.00;99180.94;4177188;28;20043;-72
2023/05/17 06:01:58;;;;;;;5.68;3.80;;;;;;;6.87;100.00;99174.22;4181357;28;20051;-72
2023/05/17 06:03:59;;;;;;;10.77;4.30;;;;;;;6.95;100.00;99185.19;4181135;28;20033;-72
2023/05/17 06:05:59;;;;;;;9.00;4.07;;;;;;;6.98;100.00;99180.94;4184747;28;20049;-72
2023/05/17 06:07:59;;;;;;;8.32;4.05;;;;;;;7.08;100.00;99194.28;4178995;28;20107;-72
2023/05/17 06:10:00;;;;;;;10.13;4.50;;;;;;;7.18;100.00;99188.34;4181611;28;20484;-72
2023/05/17 06:12:00;;;;;;;7.03;3.88;;;;;;;7.21;100.00;99190.44;4179528;28;20037;-72
2023/05/17 06:14:00;;;;;;;11.75;5.18;;;;;;;7.30;100.00;99190.38;4178042;28;20481;-72
2023/05/17 06:16:01;;;;;;;9.68;4.07;;;;;;;7.33;100.00;99192.44;4182462;28;20105;-72
2023/05/17 06:18:01;;;;;;;8.68;4.70;;;;;;;7.42;100.00;99198.66;4182952;28;20593;-72
2023/05/17 06:20:01;;;;;;;9.65;3.88;;;;;;;7.51;100.00;99190.31;4179120;28;20461;-72
2023/05/17 06:22:02;;;;;;;9.07;3.58;;;;;;;7.58;100.00;99194.09;4183882;28;20037;-72
2023/05/17 06:24:03;;;;;;;8.10;3.20;;;;;;;7.67;100.00;99202.28;4179505;28;20036;-72
2023/05/17 06:26:08;;;;;;;9.00;3.40;;;;;;;7.65;100.00;99198.25;4184714;28;20028;-72
2023/05/17 06:28:08;;;;;;;9.85;3.30;;;;;;;7.77;100.00;99201.03;4178487;28;20035;-72
2023/05/17 06:30:09;;;;;;;7.47;4.22;;;;;;;7.71;100.00;99203.22;4179461;28;20057;-72
2023/05/17 06:32:10;;;;;;;10.25;3.40;;;;;;;7.79;100.00;99202.31;4182724;28;20032;-72
2023/05/17 06:34:10;;;;;;;7.32;3.97;;;;;;;7.81;100.00;99208.28;4182829;28;20027;-72
2023/05/17 06:36:11;;;;;;;10.73;3.58;;;;;;;7.79;100.00;99212.53;4184443;28;20033;-72
2023/05/17 06:38:11;;;;;;;11.30;4.55;;;;;;;7.92;100.00;99214.13;4184574;28;20056;-72
2023/05/17 06:40:11;;;;;;;8.88;3.08;;;;;;;7.84;100.00;99220.56;4184368;28;20137;-73
2023/05/17 06:42:12;;;;;;;9.65;3.20;;;;;;;7.93;100.00;99221.25;4185022;28;20020;-72
2023/05/17 06:44:12;;;;;;;7.38;3.30;;;;;;;8.06;100.00;99213.81;4183412;28;20229;-72
2023/05/17 06:46:13;;;;;;;6.43;3.10;;;;;;;8.12;100.00;99220.72;4185435;28;20959;-72
2023/05/17 06:48:14;;;;;;;11.10;3.47;;;;;;;8.13;100.00;99220.38;4183164;28;20043;-72
2023/05/17 06:50:14;;;;;;;7.00;3.42;;;;;;;8.10;100.00;99214.72;4188425;28;20020;-72
2023/05/17 06:52:15;;;;;;;10.32;3.80;;;;;;;8.13;100.00;99223.13;4185539;28;20060;-72
2023/05/17 06:54:15;;;;;;;5.78;3.55;;;;;;;7.98;100.00;99210.03;4186528;28;20024;-72
2023/05/17 06:56:15;;;;;;;8.10;3.63;;;;;;;8.06;100.00;99211.06;4185895;28;20758;-72
2023/05/17 06:58:16;;;;;;;12.88;4.63;;;;;;;8.09;100.00;99213.13;4184570;28;20091;-72
2023/05/17 07:00:16;;;;;;;10.95;3.80;;;;;;;8.23;100.00;99219.09;4177110;28;20033;-72
2023/05/17 07:02:17;;;;;;;8.50;4.10;;;;;;;8.32;100.00;99221.75;4185189;28;20111;-72
2023/05/17 07:04:18;;;;;;;8.85;4.07;;;;;;;8.35;100.00;99226.59;4183767;28;20280;-72
2023/05/17 07:06:18;;;;;;;13.63;3.75;;;;;;;8.25;100.00;99235.31;4187865;28;20028;-72
2023/05/17 07:08:18;;;;;;;7.32;3.80;;;;;;;8.13;100.00;99225.09;4183397;28;20372;-72
2023/05/17 07:10:19;;;;;;;9.75;3.67;;;;;;;8.22;100.00;99225.78;4185534;28;20116;-72
2023/05/17 07:12:19;;;;;;;8.45;4.00;;;;;;;8.47;100.00;99229.38;4183812;28;20025;-72
2023/05/17 07:14:19;;;;;;;7.95;4.53;;;;;;;8.48;100.00;99230.16;4180766;28;20040;-72
2023/05/17 07:16:20;;;;;;;8.07;3.92;;;;;;;8.50;100.00;99227.84;4185368;28;20032;-72
2023/05/17 07:18:20;;;;;;;12.88;4.05;;;;;;;8.34;100.00;99234.03;4182783;28;20044;-72
2023/05/17 07:20:20;;;;;;;9.55;4.10;;;;;;;8.25;100.00;99238.06;4184710;28;20041;-72
2023/05/17 07:22:21;;;;;;;7.75;3.50;;;;;;;8.51;100.00;99237.72;4183896;28;20315;-72
2023/05/17 07:24:21;;;;;;;11.32;4.38;;;;;;;8.38;100.00;99235.00;4183878;28;20040;-72
2023/05/17 07:26:22;;;;;;;5.85;3.20;;;;;;;8.30;100.00;99241.41;4180357;28;20381;-72
2023/05/17 07:28:22;;;;;;;8.23;4.00;;;;;;;8.32;100.00;99230.81;4181346;28;20090;-72
2023/05/17 07:30:23;;;;;;;8.35;3.55;;;;;;;8.25;100.00;99235.31;4184895;28;20060;-72
2023/05/17 07:32:23;;;;;;;10.02;3.90;;;;;;;8.46;100.00;99233.28;4185649;28;20127;-72
2023/05/17 07:34:23;;;;;;;9.73;3.45;;;;;;;8.62;100.00;99244.41;4185365;28;20380;-72
2023/05/17 07:36:26;;;;;;;11.07;3.58;;;;;;;8.71;100.00;99236.81;4183864;28;20732;-72
2023/05/17 07:38:26;;;;;;;4.88;3.00;;;;;;;8.81;100.00;99230.00;4182749;28;20071;-72
2023/05/17 07:40:26;;;;;;;6.97;3.25;;;;;;;9.00;100.00;99235.69;4180251;28;20057;-72
2023/05/17 07:42:27;;;;;;;12.73;4.18;;;;;;;9.00;100.00;99238.47;4184838;28;20068;-72
2023/05/17 07:44:27;;;;;;;11.07;3.25;;;;;;;8.92;100.00;99237.44;4184362;28;20033;-72
2023/05/17 07:46:27;;;;;;;10.77;4.63;;;;;;;9.11;100.00;99233.28;4181914;28;20155;-72
2023/05/17 07:48:28;;;;;;;10.18;3.88;;;;;;;9.13;100.00;99229.00;4186247;28;20513;-72
2023/05/17 07:50:28;;;;;;;9.77;3.88;;;;;;;9.27;100.00;99229.44;4187455;28;20075;-72
2023/05/17 07:52:28;;;;;;;10.60;4.20;;;;;;;9.18;100.00;99236.22;4177230;28;20377;-72
2023/05/17 07:54:29;;;;;;;9.75;3.85;;;;;;;8.85;100.00;99239.19;4188916;28;20048;-72
2023/05/17 07:56:30;;;;;;;8.48;3.70;;;;;;;8.92;100.00;99236.66;4183726;28;20044;-72
2023/05/17 07:58:30;;;;;;;5.90;3.72;;;;;;;9.13;100.00;99237.28;4184111;28;20090;-72
2023/05/17 08:00:32;;;;;;;7.40;3.38;;;;;;;9.26;100.00;99238.03;4182522;28;20045;-72
2023/05/17 08:02:32;;;;;;;7.80;3.55;;;;;;;9.33;100.00;99237.44;4187870;28;20383;-72
2023/05/17 08:04:32;;;;;;;11.05;3.60;;;;;;;9.26;100.00;99246.31;4183163;28;20045;-72
2023/05/17 08:06:32;;;;;;;9.65;3.38;;;;;;;9.22;100.00;99237.94;4182971;28;20052;-72
2023/05/17 08:08:33;;;;;;;8.02;3.53;;;;;;;9.22;98.71;99242.66;4182645;28;20041;-72
2023/05/17 08:10:36;;;;;;;7.07;3.25;;;;;;;9.01;98.76;99240.88;4183089;28;20056;-72
2023/05/17 08:12:37;;;;;;;7.05;3.10;;;;;;;9.00;100.00;99239.25;4184329;28;20372;-72
2023/05/17 08:14:38;;;;;;;10.57;3.30;;;;;;;8.93;100.00;99239.06;4181522;28;20045;-72
2023/05/17 08:16:39;;;;;;;8.88;2.83;;;;;;;8.68;96.43;99231.97;4182830;28;20033;-72
2023/05/17 08:18:43;;;;;;;8.88;2.95;;;;;;;8.75;95.50;99232.19;4183862;28;20174;-72
2023/05/17 08:20:45;;;;;;;7.03;2.65;;;;;;;8.75;97.04;99237.72;4183754;28;20032;-72
2023/05/17 08:22:46;;;;;;;8.20;2.45;;;;;;;8.73;95.44;99232.53;4182366;28;20076;-72
2023/05/17 08:24:46;;;;;;;8.57;2.63;;;;;;;8.85;94.94;99228.94;4183286;28;20103;-72
2023/05/17 08:26:46;;;;;;;6.65;2.83;;;;;;;9.09;92.91;99227.28;4185026;28;20075;-72
2023/05/17 08:28:47;;;;;;;12.05;2.97;;;;;;;9.50;92.71;99226.09;4181058;28;20136;-72
2023/05/17 08:30:47;;;;;;;6.15;2.50;;;;;;;9.88;87.35;99220.00;4189022;28;20156;-72
2023/05/17 08:32:47;;;;;;;5.80;2.75;;;;;;;9.82;86.75;99222.22;4182805;28;20620;-72
2023/05/17 08:34:48;;;;;;;5.43;2.50;;;;;;;9.87;87.02;99220.38;4180979;28;20044;-72
2023/05/17 08:36:48;;;;;;;6.18;2.22;;;;;;;9.98;82.30;99238.81;4183747;28;20041;-72
2023/05/17 08:38:48;;;;;;;5.47;1.83;;;;;;;9.91;83.63;99224.81;4182616;28;20048;-72
2023/05/17 08:40:53;;;;;;;5.53;2.05;;;;;;;9.73;81.30;99234.59;4180590;28;20062;-72
2023/05/17 08:42:54;;;;;;;7.03;3.42;;;;;;;9.74;82.62;99230.69;4181486;28;20057;-72
2023/05/17 08:44:55;;;;;;;4.32;2.17;;;;;;;9.66;84.06;99231.66;4182549;28;20048;-72
2023/05/17 08:46:57;;;;;;;9.88;2.85;;;;;;;9.36;84.12;99231.22;4186708;28;20059;-72
2023/05/17 08:49:00;;;;;;;;;;;;;;;9.51;85.30;99235.97;4182838;28;20194;-72
2023/05/17 08:51:01;;;;;;;5.63;2.25;;;;;;;9.56;85.02;99225.47;4181919;28;20431;-72
2023/05/17 08:53:02;;;;;;;8.60;2.45;;;;;;;9.49;84.59;99230.81;4180551;28;20060;-72
2023/05/17 08:55:04;;;;;;;8.77;2.60;;;;;;;9.62;84.46;99222.47;4184895;28;20044;-72
2023/05/17 08:57:06;;;;;;;13.25;2.65;;;;;;;9.69;85.79;99219.91;4181435;28;20564;-72
2023/05/17 08:59:09;;;;;;;6.00;2.40;;;;;;;9.66;85.28;99229.69;4177867;28;20358;-72
2023/05/17 09:01:11;;;;;;;4.32;2.33;;;;;;;9.48;83.31;99229.19;4185436;28;20198;-72
2023/05/17 09:03:16;;;;;;;3.30;2.00;;;;;;;9.67;83.25;99224.97;4178544;28;20045;-72
2023/05/17 09:05:17;;;;;;;8.70;2.90;;;;;;;9.51;82.43;99235.97;4184044;28;20036;-72
2023/05/17 09:07:19;;;;;;;9.77;3.10;;;;;;;9.62;81.32;99234.31;4184454;28;20056;-72
2023/05/17 09:09:19;;;;;;;7.18;2.97;;;;;;;9.88;79.98;99233.03;4180720;28;20119;-72
2023/05/17 09:11:31;;;;;;;7.40;2.70;;;;;;;10.30;80.90;99225.03;4183627;28;20043;-72
2023/05/17 09:13:31;;;;;;;5.18;2.30;;;;;;;10.50;76.18;99237.78;4182966;28;20025;-72
2023/05/17 09:15:33;;;;;;;4.65;2.30;;;;;;;10.57;75.72;99226.06;4178580;28;20488;-72
2023/05/17 09:17:33;;;;;;;4.20;2.00;;;;;;;10.41;72.52;99240.72;4184098;28;20045;-72
2023/05/17 09:19:42;;;;;;;6.75;2.38;;;;;;;10.60;74.13;99239.22;4183878;28;20043;-72
2023/05/17 09:21:46;;;;;;;6.85;2.50;;;;;;;10.65;72.46;99236.94;4184053;28;20083;-72
2023/05/17 09:23:47;;;;;;;5.70;2.10;;;;;;;10.83;71.49;99247.63;4184519;28;20127;-72
2023/05/17 09:25:48;;;;;;;7.53;2.50;;;;;;;10.92;72.17;99257.34;4176456;28;20055;-72
2023/05/17 09:27:52;;;;;;;4.03;2.20;;;;;;;10.76;76.79;99253.81;4181681;28;20062;-72
2023/05/17 09:29:53;;;;;;;7.82;2.40;;;;;;;10.73;79.93;99254.53;4183534;28;20045;-72
2023/05/17 09:31:53;;;;;;;6.70;2.20;;;;;;;10.55;80.37;99253.31;4177420;28;20098;-72